Time;durP1;ratioP1;P1;durP2;ratioP2;P2;SDS_P1;SDS_P2;PMS_P1;PMS_P2;Temp;Humidity;BMP_temperature;BMP_pressure;BME280_temperature;BME280_humidity;BME280_pressure;Samples;Min_cycle;Max_cycle;Signal;HPM_P1;HPM_P2
2023/10/11 00:00:40;;;;;;;22.92;12.65;;;13.80;85.90;;;;;;4828474;29;20046;-94
2023/10/11 00:03:32;;;;;;;21.30;11.07;;;13.80;85.90;;;;;;4828371;29;20057;-95
2023/10/11 00:06:05;;;;;;;24.23;12.67;;;13.70;85.90;;;;;;4828224;29;20042;-95
2023/10/11 00:08:41;;;;;;;23.38;12.00;;;13.80;85.90;;;;;;4828422;29;20050;-94
2023/10/11 00:11:08;;;;;;;20.75;11.85;;;13.80;85.80;;;;;;4812849;29;20049;-94
2023/10/11 00:13:37;;;;;;;21.55;11.98;;;13.80;85.80;;;;;;4813107;29;20045;-94
2023/10/11 00:16:09;;;;;;;24.40;12.70;;;13.90;85.80;;;;;;4828469;29;20058;-93
2023/10/11 00:18:37;;;;;;;22.10;12.00;;;13.90;85.90;;;;;;4828605;29;20298;-94
2023/10/11 00:21:11;;;;;;;23.65;12.30;;;13.90;86.10;;;;;;4828464;29;20098;-93
2023/10/11 00:23:41;;;;;;;20.13;11.20;;;13.90;86.10;;;;;;4828491;29;20061;-93
2023/10/11 00:26:09;;;;;;;22.95;11.13;;;14.00;86.10;;;;;;4813130;29;20053;-93
2023/10/11 00:28:40;;;;;;;23.50;12.38;;;14.00;86.10;;;;;;4828274;29;20049;-94
2023/10/11 00:31:16;;;;;;;22.00;12.23;;;14.00;86.10;;;;;;4827831;29;20397;-93
2023/10/11 00:33:46;;;;;;;23.17;12.57;;;14.00;86.00;;;;;;4828199;29;20114;-93
2023/10/11 00:36:24;;;;;;;23.02;12.35;;;14.00;86.00;;;;;;4828628;29;20058;-94
2023/10/11 00:38:52;;;;;;;21.92;12.63;;;14.10;86.00;;;;;;4828129;29;20057;-94
2023/10/11 00:41:19;;;;;;;21.27;11.27;;;14.10;85.90;;;;;;4828004;29;20056;-93
2023/10/11 00:43:51;;;;;;;21.33;12.23;;;14.10;86.00;;;;;;4813743;29;20049;-94
2023/10/11 00:46:44;;;;;;;20.95;11.50;;;14.20;85.80;;;;;;4813595;29;20056;-94
2023/10/11 00:49:14;;;;;;;23.38;11.73;;;14.20;85.70;;;;;;4813118;29;20106;-94
2023/10/11 00:51:44;;;;;;;23.65;11.52;;;14.20;85.70;;;;;;4813102;29;20137;-94
2023/10/11 00:54:15;;;;;;;20.15;11.38;;;14.30;85.60;;;;;;4813331;29;20046;-93
2023/10/11 00:56:49;;;;;;;22.63;12.43;;;14.30;85.70;;;;;;4813181;29;20057;-94
2023/10/11 00:59:21;;;;;;;23.20;13.18;;;14.30;85.60;;;;;;4812710;29;20571;-93
2023/10/11 01:01:50;;;;;;;21.65;12.43;;;14.30;85.70;;;;;;4812936;29;20080;-93
2023/10/11 01:04:18;;;;;;;20.38;11.25;;;14.30;85.80;;;;;;4827101;29;20061;-93
2023/10/11 01:06:49;;;;;;;23.02;13.18;;;14.30;86.00;;;;;;4812629;29;20046;-93
2023/10/11 01:09:26;;;;;;;20.83;11.57;;;14.30;85.90;;;;;;4812968;29;20073;-94
2023/10/11 01:11:53;;;;;;;20.80;11.45;;;14.30;85.90;;;;;;4813021;29;20235;-94
2023/10/11 01:14:23;;;;;;;21.90;11.57;;;14.30;86.00;;;;;;4812938;29;20046;-94
2023/10/11 01:16:53;;;;;;;21.15;12.10;;;14.40;85.80;;;;;;4812955;29;20046;-94
2023/10/11 01:19:23;;;;;;;21.17;11.25;;;14.40;85.70;;;;;;4827776;29;20053;-94
2023/10/11 01:21:54;;;;;;;22.80;11.30;;;14.40;85.70;;;;;;4813807;29;20458;-94
2023/10/11 01:24:22;;;;;;;22.10;10.50;;;14.50;85.60;;;;;;4831351;29;20053;-94
2023/10/11 01:26:49;;;;;;;20.15;11.23;;;14.50;85.70;;;;;;4816363;29;20050;-94
2023/10/11 01:29:16;;;;;;;20.42;10.82;;;14.50;85.60;;;;;;4831115;29;20050;-94
2023/10/11 01:31:44;;;;;;;19.00;10.60;;;14.50;85.60;;;;;;4816059;29;20492;-94
2023/10/11 01:34:14;;;;;;;19.27;10.30;;;14.50;85.60;;;;;;4816210;29;20046;-93
2023/10/11 01:36:44;;;;;;;24.25;11.68;;;14.50;85.40;;;;;;4831182;29;20049;-94
2023/10/11 01:39:12;;;;;;;19.00;10.73;;;14.50;85.30;;;;;;4830832;29;20476;-93
2023/10/11 01:41:42;;;;;;;17.80;10.35;;;14.50;85.30;;;;;;4830974;29;20106;-94
2023/10/11 01:44:10;;;;;;;20.95;10.80;;;14.60;85.20;;;;;;4830361;29;20057;-93
2023/10/11 01:46:39;;;;;;;20.03;10.50;;;14.60;85.20;;;;;;4815494;29;20054;-93
2023/10/11 01:49:09;;;;;;;17.38;10.10;;;14.60;85.10;;;;;;4815734;29;20046;-94
2023/10/11 01:51:39;;;;;;;16.85;9.98;;;14.60;85.30;;;;;;4830796;29;20053;-93
2023/10/11 01:54:07;;;;;;;18.10;10.20;;;14.60;85.40;;;;;;4815520;29;20084;-92
2023/10/11 01:56:34;;;;;;;21.52;10.32;;;14.60;85.50;;;;;;4830470;29;20049;-93
2023/10/11 01:59:01;;;;;;;18.80;9.37;;;14.60;85.30;;;;;;4830373;29;20050;-93
2023/10/11 02:01:38;;;;;;;21.02;10.15;;;14.60;85.30;;;;;;4815841;29;20572;-93
2023/10/11 02:04:18;;;;;;;19.27;10.70;;;14.60;85.20;;;;;;4830388;29;20069;-94
2023/10/11 02:06:49;;;;;;;19.83;9.90;;;14.70;85.20;;;;;;4830294;29;20060;-94
2023/10/11 02:09:20;;;;;;;19.23;10.13;;;14.70;85.30;;;;;;4815534;29;20049;-94
2023/10/11 02:11:52;;;;;;;16.73;10.53;;;14.70;85.00;;;;;;4830881;29;20057;-93
2023/10/11 02:14:28;;;;;;;15.38;8.60;;;14.70;85.00;;;;;;4830265;29;20046;-94
2023/10/11 02:16:55;;;;;;;15.70;8.40;;;14.80;85.00;;;;;;4830204;29;20050;-93
2023/10/11 02:19:23;;;;;;;15.07;8.27;;;14.80;84.80;;;;;;4815382;29;20056;-92
2023/10/11 02:21:53;;;;;;;16.98;8.10;;;14.80;84.70;;;;;;4815237;29;20106;-93
2023/10/11 02:24:25;;;;;;;19.03;8.73;;;14.80;84.70;;;;;;4830209;29;20049;-93
2023/10/11 02:26:54;;;;;;;16.40;9.55;;;14.90;84.50;;;;;;4815209;29;20054;-93
2023/10/11 02:29:25;;;;;;;19.75;9.57;;;14.90;84.50;;;;;;4815498;29;20046;-93
2023/10/11 02:31:54;;;;;;;16.73;9.77;;;14.90;84.20;;;;;;4815131;29;20462;-93
2023/10/11 02:34:22;;;;;;;15.90;9.02;;;14.90;84.20;;;;;;4814518;29;20105;-93
2023/10/11 02:37:05;;;;;;;15.97;8.10;;;15.00;84.30;;;;;;4815131;29;20050;-94
2023/10/11 02:39:32;;;;;;;18.60;8.02;;;14.90;84.30;;;;;;4830096;29;20064;-94
2023/10/11 02:42:01;;;;;;;15.35;8.38;;;14.90;84.10;;;;;;4815374;29;20054;-94
2023/10/11 02:44:29;;;;;;;16.27;8.30;;;14.90;84.20;;;;;;4814726;29;20532;-93
2023/10/11 02:46:58;;;;;;;16.50;8.50;;;15.00;84.20;;;;;;4814823;29;20141;-93
2023/10/11 02:49:31;;;;;;;14.80;7.77;;;14.90;84.10;;;;;;4814972;29;20048;-93
2023/10/11 02:52:05;;;;;;;15.77;7.28;;;15.00;84.10;;;;;;4829441;29;20103;-93
2023/10/11 02:54:34;;;;;;;13.43;7.25;;;15.00;84.00;;;;;;4829913;29;20504;-92
2023/10/11 02:57:05;;;;;;;15.65;8.23;;;15.00;83.80;;;;;;4814745;29;20141;-93
2023/10/11 02:59:36;;;;;;;14.85;8.27;;;15.00;83.80;;;;;;4815414;29;20066;-93
2023/10/11 03:02:05;;;;;;;14.50;7.60;;;15.00;83.90;;;;;;4814657;29;20049;-94
2023/10/11 03:04:41;;;;;;;15.80;8.45;;;15.00;83.90;;;;;;4814717;29;20058;-95
2023/10/11 03:07:21;;;;;;;15.25;7.47;;;15.00;83.90;;;;;;4815126;29;20046;-94
2023/10/11 03:09:49;;;;;;;16.23;8.25;;;15.00;83.80;;;;;;4814923;29;20048;-94
2023/10/11 03:12:26;;;;;;;17.63;7.93;;;15.00;83.80;;;;;;4814439;29;20072;-94
2023/10/11 03:14:57;;;;;;;14.13;7.23;;;15.00;83.80;;;;;;4814674;29;20050;-94
2023/10/11 03:17:24;;;;;;;14.25;7.70;;;14.90;83.90;;;;;;4814280;29;20077;-95
2023/10/11 03:19:54;;;;;;;16.33;8.20;;;14.90;83.90;;;;;;4814298;29;20459;-94
2023/10/11 03:22:21;;;;;;;15.75;7.88;;;14.90;83.90;;;;;;4814269;29;20050;-93
2023/10/11 03:25:12;;;;;;;15.05;7.95;;;14.90;83.90;;;;;;4814159;29;20046;-94
2023/10/11 03:27:48;;;;;;;14.33;7.93;;;14.90;83.90;;;;;;4814131;29;20049;-94
2023/10/11 03:30:23;;;;;;;14.77;7.53;;;15.00;83.90;;;;;;4814305;29;20054;-94
2023/10/11 03:32:51;;;;;;;15.10;7.50;;;14.90;83.90;;;;;;4814058;29;20053;-94
2023/10/11 03:35:19;;;;;;;14.65;7.25;;;15.00;83.70;;;;;;4814050;29;20532;-92
2023/10/11 03:37:59;;;;;;;13.70;6.82;;;15.00;83.70;;;;;;4814345;29;20049;-95
2023/10/11 03:40:41;;;;;;;14.73;7.80;;;15.00;83.70;;;;;;4814089;29;20600;-96
2023/10/11 03:43:17;;;;;;;16.23;8.27;;;15.00;83.80;;;;;;4813613;29;20082;-95
2023/10/11 03:45:49;;;;;;;13.73;6.68;;;15.00;83.70;;;;;;4813075;29;20140;-96
2023/10/11 03:48:21;;;;;;;13.77;7.00;;;15.00;83.80;;;;;;4828808;29;20062;-95
2023/10/11 03:50:51;;;;;;;13.00;6.93;;;15.00;83.70;;;;;;4813928;29;20058;-96
2023/10/11 03:53:19;;;;;;;14.10;7.73;;;15.00;83.50;;;;;;4830381;29;20070;-93
2023/10/11 03:55:47;;;;;;;13.32;7.03;;;15.00;83.50;;;;;;4814125;29;20493;-95
2023/10/11 04:01:23;;;;;;;14.73;7.63;;;14.90;83.70;;;;;;4830872;29;20049;-95
2023/10/11 04:03:51;;;;;;;13.98;7.13;;;15.00;83.80;;;;;;4830051;29;20054;-96
2023/10/11 04:06:19;;;;;;;15.13;7.43;;;14.90;83.70;;;;;;4815582;29;20057;-96
2023/10/11 04:09:02;;;;;;;14.15;7.78;;;15.00;83.60;;;;;;4814961;29;20049;-95
2023/10/11 04:11:53;;;;;;;13.90;7.05;;;14.90;83.60;;;;;;4830017;29;20053;-95
2023/10/11 04:14:25;;;;;;;13.70;6.90;;;14.90;83.60;;;;;;4815553;29;20046;-96
2023/10/11 04:17:00;;;;;;;15.18;7.85;;;14.90;83.70;;;;;;4830602;29;20054;-95
2023/10/11 04:19:31;;;;;;;17.40;7.40;;;14.90;83.80;;;;;;4815304;29;20054;-96
2023/10/11 04:22:12;;;;;;;16.08;7.32;;;15.00;83.70;;;;;;4815210;29;20061;-96
2023/10/11 04:24:41;;;;;;;13.82;7.10;;;15.00;83.60;;;;;;4814270;29;20080;-95
2023/10/11 04:29:50;;;;;;;13.93;7.28;;;15.00;83.70;;;;;;4829572;29;20508;-95
2023/10/11 04:33:01;;;;;;;15.40;7.83;;;14.90;83.70;;;;;;4829225;29;20041;-95
2023/10/11 04:35:25;;;;;;;14.77;7.78;;;15.00;83.80;;;;;;4824815;29;20065;-96
2023/10/11 04:38:01;;;;;;;13.18;7.10;;;14.90;83.70;;;;;;4814914;29;20061;-96
2023/10/11 04:43:08;;;;;;;15.07;7.90;;;14.90;83.90;;;;;;4846440;29;20058;-96
2023/10/11 04:45:46;;;;;;;16.00;7.83;;;14.90;83.90;;;;;;4831151;29;20054;-96
2023/10/11 04:48:19;;;;;;;13.38;7.50;;;14.90;83.80;;;;;;4829615;29;20053;-96
2023/10/11 04:50:47;;;;;;;16.10;7.95;;;15.00;83.80;;;;;;4814163;29;20080;-96
2023/10/11 04:53:18;;;;;;;14.05;7.50;;;15.00;83.80;;;;;;4815053;29;20046;-96
2023/10/11 04:55:58;;;;;;;17.23;7.32;;;14.90;83.80;;;;;;4829902;29;20062;-96
2023/10/11 05:01:40;;;;;;;14.30;6.72;;;15.00;83.60;;;;;;4812637;29;20528;-95
2023/10/11 05:08:51;;;;;;;14.38;6.97;;;15.00;83.40;;;;;;4856462;29;20565;-96
2023/10/11 05:11:35;;;;;;;15.63;6.65;;;15.00;83.30;;;;;;4836820;29;20057;-96
2023/10/11 05:16:50;;;;;;;15.52;6.72;;;15.00;83.50;;;;;;4847806;29;20049;-94
2023/10/11 05:19:20;;;;;;;12.30;6.18;;;15.00;83.40;;;;;;4831709;29;20505;-95
2023/10/11 05:21:52;;;;;;;12.82;5.90;;;15.00;83.30;;;;;;4846751;29;20524;-95
2023/10/11 05:24:44;;;;;;;14.32;7.10;;;15.10;83.10;;;;;;4833558;29;20106;-95
2023/10/11 05:27:12;;;;;;;14.33;7.37;;;15.10;83.10;;;;;;4831953;29;20049;-94
2023/10/11 05:32:32;;;;;;;14.50;7.15;;;15.10;83.00;;;;;;4828222;29;20098;-95
2023/10/11 05:51:30;;;;;;;15.30;7.60;;;15.10;83.10;;;;;;4846773;29;20192;-95
2023/10/11 05:54:05;;;;;;;17.17;8.03;;;15.10;83.00;;;;;;4846502;29;20046;-95
2023/10/11 05:56:38;;;;;;;15.98;7.75;;;15.10;83.10;;;;;;4831307;29;20390;-94
2023/10/11 05:59:09;;;;;;;16.13;7.60;;;15.10;83.20;;;;;;4831399;29;20073;-94
2023/10/11 06:01:37;;;;;;;13.30;6.38;;;15.10;83.10;;;;;;4831560;29;20057;-94
2023/10/11 06:04:04;;;;;;;15.90;8.13;;;15.20;82.90;;;;;;4831178;29;20046;-95
2023/10/11 06:06:38;;;;;;;17.00;9.27;;;15.20;83.10;;;;;;4830575;29;20497;-95
2023/10/11 06:09:06;;;;;;;15.43;7.50;;;15.20;83.00;;;;;;4830278;29;20490;-95
2023/10/11 06:11:37;;;;;;;18.40;9.00;;;15.20;83.10;;;;;;4830487;29;20046;-95
2023/10/11 06:14:12;;;;;;;16.08;7.28;;;15.20;83.20;;;;;;4831776;29;20060;-94
2023/10/11 06:16:43;;;;;;;15.40;6.88;;;15.20;82.90;;;;;;4830900;29;20050;-95
2023/10/11 06:19:16;;;;;;;15.43;7.67;;;15.30;82.80;;;;;;4830837;29;20075;-94
2023/10/11 06:21:56;;;;;;;14.43;7.05;;;15.30;82.70;;;;;;4830609;29;20053;-95
2023/10/11 06:24:25;;;;;;;17.17;7.00;;;15.40;82.50;;;;;;4830482;29;20085;-95
2023/10/11 06:26:52;;;;;;;16.25;7.40;;;15.40;82.50;;;;;;4845468;29;20075;-95
2023/10/11 06:29:23;;;;;;;15.55;7.40;;;15.40;82.50;;;;;;4830498;29;20136;-95
2023/10/11 06:31:52;;;;;;;15.13;7.37;;;15.50;82.20;;;;;;4830365;29;20496;-95
2023/10/11 06:34:39;;;;;;;13.63;6.25;;;15.50;82.30;;;;;;4832610;29;20474;-95
2023/10/11 06:37:06;;;;;;;16.13;7.32;;;15.50;82.00;;;;;;4830221;29;20144;-95
2023/10/11 06:42:12;;;;;;;14.85;7.57;;;15.70;82.10;;;;;;4845198;29;20054;-95
2023/10/11 06:45:16;;;;;;;19.10;7.67;;;15.70;81.90;;;;;;4830409;29;20524;-95
2023/10/11 06:47:47;;;;;;;16.48;7.40;;;15.70;81.80;;;;;;4830429;29;20504;-95
2023/10/11 06:50:14;;;;;;;14.43;6.63;;;15.80;81.60;;;;;;4830414;29;20050;-95
2023/10/11 06:52:43;;;;;;;15.40;7.05;;;15.80;81.50;;;;;;4845068;29;20049;-95
2023/10/11 06:55:17;;;;;;;14.07;6.38;;;15.90;81.60;;;;;;4830515;29;20537;-95
2023/10/11 06:57:54;;;;;;;13.93;6.40;;;16.00;81.40;;;;;;4830626;29;20144;-95
2023/10/11 07:00:25;;;;;;;17.13;7.15;;;16.10;80.90;;;;;;4830619;29;20054;-95
2023/10/11 07:03:09;;;;;;;15.32;7.28;;;16.10;80.80;;;;;;4830589;29;20118;-95
2023/10/11 07:05:41;;;;;;;14.93;6.57;;;16.10;81.00;;;;;;4830804;29;20148;-95
2023/10/11 07:08:09;;;;;;;15.23;7.28;;;16.30;80.60;;;;;;4845614;29;20444;-95
2023/10/11 07:11:10;;;;;;;16.67;7.20;;;16.30;80.50;;;;;;4831082;29;20045;-95
2023/10/11 07:13:54;;;;;;;17.20;6.55;;;16.40;80.00;;;;;;4831137;29;20050;-95
2023/10/11 07:16:27;;;;;;;16.50;6.97;;;16.50;79.90;;;;;;4831146;29;20420;-95
2023/10/11 07:18:57;;;;;;;14.52;6.30;;;16.60;79.60;;;;;;4845253;29;20049;-95
2023/10/11 07:21:26;;;;;;;14.93;5.97;;;16.70;79.10;;;;;;4830852;29;20080;-95
2023/10/11 07:29:02;;;;;;;13.68;5.20;;;16.80;78.20;;;;;;4846906;29;20061;-95
2023/10/11 07:31:38;;;;;;;15.10;6.00;;;16.90;78.50;;;;;;4846849;29;20057;-95
2023/10/11 07:34:16;;;;;;;17.70;5.80;;;17.00;77.90;;;;;;4833378;29;20136;-94
2023/10/11 07:36:45;;;;;;;13.43;5.50;;;17.00;77.90;;;;;;4833411;29;20049;-95
2023/10/11 07:42:06;;;;;;;14.48;5.25;;;17.10;77.70;;;;;;4848979;29;20058;-95
2023/10/11 07:44:38;;;;;;;12.75;5.47;;;17.20;77.30;;;;;;4833517;29;20053;-95
2023/10/11 07:47:18;;;;;;;15.90;5.50;;;17.30;77.40;;;;;;4848028;29;20128;-95
2023/10/11 07:49:49;;;;;;;16.50;6.63;;;17.30;76.80;;;;;;4832754;29;20061;-94
2023/10/11 07:52:19;;;;;;;17.42;6.20;;;17.30;77.20;;;;;;4832748;29;20428;-95
2023/10/11 07:54:47;;;;;;;15.40;5.97;;;17.30;76.60;;;;;;4833161;29;20079;-95
2023/10/11 07:57:17;;;;;;;13.77;5.63;;;17.40;77.20;;;;;;4833911;29;20054;-95
2023/10/11 07:59:47;;;;;;;13.63;5.60;;;17.40;77.40;;;;;;4832237;29;20487;-95
2023/10/11 08:02:26;;;;;;;12.97;5.20;;;17.50;76.30;;;;;;4832338;29;20505;-93
2023/10/11 08:04:55;;;;;;;14.77;5.28;;;17.50;76.80;;;;;;4832043;29;20144;-94
2023/10/11 08:07:22;;;;;;;13.80;4.90;;;17.60;76.40;;;;;;4831999;29;20058;-95
2023/10/11 08:09:53;;;;;;;14.48;5.25;;;17.60;76.00;;;;;;4847118;29;20056;-95
2023/10/11 08:12:27;;;;;;;12.82;5.65;;;17.70;76.00;;;;;;4832159;29;20046;-95
2023/10/11 08:14:58;;;;;;;14.27;5.57;;;17.70;75.90;;;;;;4833256;29;20050;-95
2023/10/11 08:17:28;;;;;;;14.27;5.35;;;17.80;76.40;;;;;;4847391;29;20542;-96
2023/10/11 08:19:56;;;;;;;12.30;5.07;;;17.80;76.40;;;;;;4832566;29;20125;-95
2023/10/11 08:22:23;;;;;;;13.60;5.30;;;18.00;75.80;;;;;;4833092;29;20079;-95
2023/10/11 08:24:56;;;;;;;11.82;5.25;;;18.00;75.40;;;;;;4833418;29;20089;-95
2023/10/11 08:30:07;;;;;;;11.95;5.00;;;18.10;75.70;;;;;;4849104;29;20415;-96
2023/10/11 08:32:38;;;;;;;14.82;4.97;;;18.20;75.30;;;;;;4834209;29;20073;-94
2023/10/11 08:35:15;;;;;;;11.23;4.88;;;18.30;74.90;;;;;;4845918;29;20046;-94
2023/10/11 08:37:52;;;;;;;12.95;4.90;;;18.30;75.20;;;;;;4832092;29;20422;-96
2023/10/11 08:40:22;;;;;;;13.63;5.30;;;18.30;74.60;;;;;;4847799;29;20497;-95
2023/10/11 08:42:51;;;;;;;13.65;5.40;;;18.30;74.50;;;;;;4832550;29;20054;-95
2023/10/11 08:45:33;;;;;;;13.82;5.45;;;18.30;74.60;;;;;;4848589;29;20504;-95
2023/10/11 08:48:06;;;;;;;13.32;5.25;;;18.30;74.60;;;;;;4847606;29;20050;-95
2023/10/11 08:50:35;;;;;;;12.15;5.53;;;18.40;74.40;;;;;;4832830;29;20050;-95
2023/10/11 08:53:07;;;;;;;10.40;5.03;;;18.40;74.90;;;;;;4832526;29;20058;-96
2023/10/11 08:55:42;;;;;;;10.77;4.82;;;18.50;74.70;;;;;;4833340;29;20046;-96
2023/10/11 08:58:12;;;;;;;15.77;5.18;;;18.50;74.10;;;;;;4833277;29;20523;-95
2023/10/11 09:00:47;;;;;;;16.10;5.22;;;18.50;74.60;;;;;;4846485;29;20117;-96
2023/10/11 09:03:18;;;;;;;14.63;6.07;;;18.50;74.40;;;;;;4830950;29;20074;-95
2023/10/11 09:05:47;;;;;;;12.43;5.23;;;18.50;74.00;;;;;;4830667;29;20077;-96
2023/10/11 09:08:26;;;;;;;12.55;4.95;;;18.50;74.00;;;;;;4846100;29;20062;-96
2023/10/11 09:11:36;;;;;;;15.57;6.63;;;18.60;74.10;;;;;;4831530;29;20113;-96
2023/10/11 09:14:13;;;;;;;13.85;5.50;;;18.60;74.80;;;;;;4846336;29;20118;-95
2023/10/11 09:16:41;;;;;;;10.63;4.65;;;18.80;74.00;;;;;;4831576;29;20046;-96
2023/10/11 09:19:11;;;;;;;14.37;6.40;;;18.90;73.10;;;;;;4831094;29;20057;-96
2023/10/11 09:21:38;;;;;;;12.77;5.43;;;18.90;73.80;;;;;;4831263;29;20148;-95
2023/10/11 09:24:23;;;;;;;13.90;5.25;;;18.90;72.90;;;;;;4830413;29;20054;-95
2023/10/11 09:29:42;;;;;;;13.15;5.07;;;18.90;73.60;;;;;;4846769;29;20050;-96
2023/10/11 09:32:13;;;;;;;10.67;5.03;;;18.90;73.30;;;;;;4831625;29;20050;-96
2023/10/11 09:34:43;;;;;;;13.10;5.30;;;19.00;73.20;;;;;;4831011;29;20095;-95
2023/10/11 09:37:11;;;;;;;12.95;4.88;;;19.00;73.10;;;;;;4831035;29;20046;-95
2023/10/11 09:39:40;;;;;;;11.82;4.35;;;19.00;72.80;;;;;;4846494;29;20062;-95
2023/10/11 09:42:11;;;;;;;13.18;5.03;;;19.00;73.30;;;;;;4830117;29;20058;-95
2023/10/11 09:44:44;;;;;;;12.30;5.00;;;19.00;72.30;;;;;;4833595;29;20054;-95
2023/10/11 09:47:19;;;;;;;12.18;5.28;;;19.00;72.30;;;;;;4832730;29;20053;-96
2023/10/11 09:49:47;;;;;;;10.50;5.07;;;18.90;72.20;;;;;;4832927;29;20568;-96
2023/10/11 09:52:17;;;;;;;14.55;5.40;;;18.80;72.70;;;;;;4848213;29;20049;-95
2023/10/11 09:54:50;;;;;;;13.82;5.40;;;18.80;72.70;;;;;;4833084;29;20481;-95
2023/10/11 09:57:18;;;;;;;10.90;4.47;;;18.70;72.80;;;;;;4833462;29;20073;-96
2023/10/11 10:00:11;;;;;;;11.07;4.75;;;18.70;73.20;;;;;;4833690;29;20046;-95
2023/10/11 10:02:44;;;;;;;13.93;5.03;;;18.80;73.20;;;;;;4833466;29;20054;-96
2023/10/11 10:05:12;;;;;;;12.60;5.47;;;19.00;72.20;;;;;;4833176;29;20108;-95
2023/10/11 10:10:08;;;;;;;16.67;5.27;;;19.10;72.90;;;;;;4847509;29;20098;-96
2023/10/11 10:12:54;;;;;;;12.23;5.63;;;19.10;71.90;;;;;;4831995;29;20058;-95
2023/10/11 10:15:28;;;;;;;12.02;4.85;;;19.10;72.70;;;;;;4848148;29;20092;-95
2023/10/11 10:18:01;;;;;;;10.98;4.50;;;19.20;72.70;;;;;;4832821;29;20054;-95
2023/10/11 10:20:33;;;;;;;9.07;3.97;;;19.30;72.30;;;;;;4848177;29;20060;-96
2023/10/11 10:23:15;;;;;;;12.60;4.80;;;19.40;71.30;;;;;;4832491;29;20046;-95
2023/10/11 10:25:46;;;;;;;10.88;4.70;;;19.40;71.80;;;;;;4847367;29;20571;-95
2023/10/11 10:28:45;;;;;;;11.55;5.00;;;19.20;71.40;;;;;;4846695;29;20056;-94
2023/10/11 10:31:17;;;;;;;12.02;4.28;;;19.10;72.00;;;;;;4816340;29;20050;-95
2023/10/11 10:33:50;;;;;;;10.30;4.70;;;19.10;72.00;;;;;;4846835;29;20524;-96
2023/10/11 10:36:20;;;;;;;13.43;5.10;;;19.10;72.00;;;;;;4831796;29;20056;-95
2023/10/11 10:39:00;;;;;;;12.30;4.97;;;19.10;72.90;;;;;;4847148;29;20057;-95
2023/10/11 10:41:32;;;;;;;12.48;4.80;;;19.30;72.40;;;;;;4847141;29;20057;-96
2023/10/11 10:44:05;;;;;;;12.90;5.32;;;19.30;72.20;;;;;;4832436;29;20088;-96
2023/10/11 10:46:45;;;;;;;12.63;5.32;;;19.40;71.40;;;;;;4847626;29;20050;-96
2023/10/11 10:49:12;;;;;;;13.87;5.00;;;19.50;71.60;;;;;;4831985;29;20050;-95
2023/10/11 10:51:47;;;;;;;13.60;4.72;;;19.50;70.60;;;;;;4832043;29;20050;-95
2023/10/11 10:54:17;;;;;;;15.52;5.40;;;19.50;71.30;;;;;;4831929;29;20523;-95
2023/10/11 10:56:52;;;;;;;11.23;4.78;;;19.60;72.40;;;;;;4831811;29;20136;-95
2023/10/11 10:59:26;;;;;;;11.50;4.55;;;19.80;70.90;;;;;;4831628;29;20476;-95
2023/10/11 11:01:53;;;;;;;11.70;4.80;;;19.90;71.50;;;;;;4832079;29;20125;-96
2023/10/11 11:04:28;;;;;;;13.40;4.40;;;20.00;69.60;;;;;;4831795;29;20531;-96
2023/10/11 11:06:58;;;;;;;10.77;4.47;;;20.10;70.40;;;;;;4832602;29;20065;-96
2023/10/11 11:09:25;;;;;;;10.77;4.93;;;20.20;69.50;;;;;;4831666;29;20076;-95
2023/10/11 11:12:14;;;;;;;14.52;4.95;;;20.20;69.00;;;;;;4832164;29;20492;-96
2023/10/11 11:14:54;;;;;;;13.80;4.57;;;20.20;68.80;;;;;;4832117;29;20073;-95
2023/10/11 11:17:45;;;;;;;12.90;4.63;;;20.30;68.70;;;;;;4831811;29;20069;-96
2023/10/11 11:20:15;;;;;;;9.57;4.43;;;20.30;68.40;;;;;;4831839;29;20107;-95
2023/10/11 11:22:46;;;;;;;12.43;4.60;;;20.30;68.90;;;;;;4831556;29;20042;-95
2023/10/11 11:25:27;;;;;;;10.20;4.20;;;20.40;69.10;;;;;;4831107;29;20050;-95
2023/10/11 11:28:17;;;;;;;11.37;5.17;;;20.30;68.20;;;;;;4832093;29;20046;-95
2023/10/11 11:30:51;;;;;;;12.10;4.50;;;20.20;68.50;;;;;;4846363;29;20092;-95
2023/10/11 11:33:35;;;;;;;11.82;4.50;;;20.00;68.00;;;;;;4846838;29;20050;-95
2023/10/11 11:36:11;;;;;;;11.60;5.68;;;20.00;69.30;;;;;;4831575;29;20568;-95
2023/10/11 11:38:46;;;;;;;13.05;5.53;;;19.90;69.60;;;;;;4831497;29;20060;-95
2023/10/11 11:41:17;;;;;;;8.87;3.10;;;19.90;69.00;;;;;;4832053;29;20432;-95
2023/10/11 11:43:47;;;;;;;11.45;4.57;;;19.80;69.60;;;;;;4831707;29;20054;-95
2023/10/11 11:46:15;;;;;;;13.68;5.97;;;19.70;69.80;;;;;;4831360;29;20049;-95
2023/10/11 11:48:43;;;;;;;11.60;4.50;;;19.70;69.60;;;;;;4831347;29;20132;-95
2023/10/11 11:51:13;;;;;;;11.55;4.57;;;19.70;69.70;;;;;;4846357;29;20062;-95
2023/10/11 11:53:44;;;;;;;11.60;4.13;;;19.70;69.90;;;;;;4831264;29;20078;-95
2023/10/11 11:56:12;;;;;;;11.48;4.47;;;19.70;70.20;;;;;;4846834;29;21151;-96
2023/10/11 11:58:50;;;;;;;12.65;4.88;;;19.70;69.60;;;;;;4831363;29;20085;-95
2023/10/11 12:01:19;;;;;;;10.88;4.22;;;19.80;70.00;;;;;;4830841;29;20137;-95
2023/10/11 12:03:53;;;;;;;10.70;4.18;;;19.80;70.00;;;;;;4830695;29;20117;-95
2023/10/11 12:06:22;;;;;;;12.87;4.73;;;19.80;69.90;;;;;;4830141;29;20070;-94
2023/10/11 12:08:58;;;;;;;10.38;3.95;;;19.80;70.10;;;;;;4815473;29;20106;-95
2023/10/11 12:11:30;;;;;;;13.88;4.40;;;19.80;69.60;;;;;;4830737;29;20042;-96
2023/10/11 12:13:59;;;;;;;11.35;4.32;;;19.70;70.00;;;;;;4830495;29;20046;-95
2023/10/11 12:16:28;;;;;;;12.32;4.38;;;19.70;70.50;;;;;;4815677;29;20046;-94
2023/10/11 12:19:11;;;;;;;11.90;4.30;;;19.60;70.10;;;;;;4815515;29;20092;-95
2023/10/11 12:21:39;;;;;;;12.00;3.90;;;19.60;70.40;;;;;;4815803;29;20126;-95
2023/10/11 12:24:12;;;;;;;11.82;4.18;;;19.50;70.30;;;;;;4814946;29;20053;-95
2023/10/11 12:27:00;;;;;;;12.02;4.30;;;19.60;70.10;;;;;;4817593;29;20579;-94
2023/10/11 12:29:27;;;;;;;14.05;4.32;;;19.60;70.10;;;;;;4815946;29;20505;-95
2023/10/11 12:31:54;;;;;;;12.27;4.10;;;19.60;70.30;;;;;;4815071;29;20072;-94
2023/10/11 12:34:25;;;;;;;13.88;4.32;;;19.50;69.50;;;;;;4814831;29;20050;-95
2023/10/11 12:36:53;;;;;;;10.38;4.28;;;19.50;70.10;;;;;;4813479;29;20073;-93
2023/10/11 12:39:20;;;;;;;11.98;4.45;;;19.40;70.60;;;;;;4827761;29;20081;-85
2023/10/11 12:41:51;;;;;;;11.10;4.10;;;19.50;70.30;;;;;;4808620;29;20054;-85
2023/10/11 12:44:19;;;;;;;11.33;3.90;;;19.60;70.10;;;;;;4824487;29;20064;-85
2023/10/11 12:46:49;;;;;;;11.80;4.50;;;19.70;70.00;;;;;;4823999;29;20132;-85
2023/10/11 12:49:17;;;;;;;12.02;4.18;;;20.00;70.90;;;;;;4822797;29;20046;-94
2023/10/11 12:51:45;;;;;;;15.15;4.55;;;20.10;69.10;;;;;;4813118;29;20093;-94
2023/10/11 12:54:19;;;;;;;12.43;4.50;;;20.10;68.50;;;;;;4812835;29;20145;-95
2023/10/11 12:56:47;;;;;;;15.67;4.90;;;20.10;68.70;;;;;;4813179;29;20063;-95
2023/10/11 12:59:15;;;;;;;12.43;4.75;;;20.10;68.60;;;;;;4813078;29;20489;-94
2023/10/11 13:01:52;;;;;;;11.77;4.30;;;20.20;69.20;;;;;;4812691;29;20141;-96
2023/10/11 13:04:30;;;;;;;12.65;4.68;;;20.30;69.10;;;;;;4813293;29;20110;-96
2023/10/11 13:06:59;;;;;;;11.55;4.45;;;20.20;68.50;;;;;;4813068;29;20136;-96
2023/10/11 13:09:30;;;;;;;9.73;4.23;;;20.10;69.00;;;;;;4812881;29;20065;-96
2023/10/11 13:11:58;;;;;;;17.27;4.72;;;20.00;69.30;;;;;;4813094;29;20108;-96
2023/10/11 13:14:26;;;;;;;9.63;4.50;;;20.00;68.60;;;;;;4812597;29;20573;-95
2023/10/11 13:16:58;;;;;;;11.98;4.20;;;20.10;69.20;;;;;;4812936;29;20046;-94
2023/10/11 13:19:26;;;;;;;13.10;5.32;;;20.00;69.30;;;;;;4816307;29;20053;-94
2023/10/11 13:21:55;;;;;;;11.13;4.80;;;20.00;69.90;;;;;;4816317;29;20058;-96
2023/10/11 13:24:26;;;;;;;12.75;4.80;;;19.90;69.40;;;;;;4830865;29;20461;-95
2023/10/11 15:23:48;;;;;;;16.80;6.05;;;18.50;72.40;;;;;;5109114;27;20433;-86
2023/10/11 15:26:19;;;;;;;17.75;7.15;;;19.10;69.90;;;;;;5089238;28;20051;-86
2023/10/11 15:28:47;;;;;;;18.00;7.05;;;19.10;70.00;;;;;;5084874;28;20058;-86
2023/10/11 15:31:16;;;;;;;16.10;6.22;;;19.10;69.80;;;;;;5088779;28;20044;-86
2023/10/11 15:33:45;;;;;;;18.30;6.53;;;19.10;69.70;;;;;;5105725;28;20102;-86
2023/10/11 15:36:14;;;;;;;18.58;6.68;;;19.00;69.80;;;;;;5120502;28;20080;-86
2023/10/11 15:38:44;;;;;;;17.73;6.32;;;19.10;69.80;;;;;;5117623;28;20500;-86
2023/10/11 15:41:16;;;;;;;17.02;5.75;;;19.00;69.40;;;;;;5104288;28;20045;-85
2023/10/11 15:43:43;;;;;;;19.67;5.60;;;19.00;69.20;;;;;;5087249;28;20447;-87
2023/10/11 15:46:12;;;;;;;14.63;5.97;;;18.90;69.30;;;;;;5118117;28;20060;-87
2023/10/11 15:48:40;;;;;;;13.45;4.82;;;18.80;69.50;;;;;;5084593;28;20044;-88
2023/10/11 15:51:09;;;;;;;12.60;5.43;;;18.80;69.40;;;;;;5091019;28;20108;-86
2023/10/11 15:53:37;;;;;;;13.05;5.38;;;18.80;69.80;;;;;;5088737;28;20032;-86
2023/10/11 15:56:06;;;;;;;13.13;5.40;;;18.80;69.70;;;;;;5100160;28;20086;-86